^^
Meteo Knjazevac Station Historical Data
Daily Summary for July 18, 2021 Units:  Both    English   Metric
Daily Weekly Monthly Yearly Custom
  High: Low: Average:
Temperature: 65.7 °F /  18.7 °C 61.2 °F /  16.2 °C 63 °F /  17.2 °C
Dew Point: 62.6 °F /  17 °C 57.4 °F /  14.1 °C 60.6 °F /  15.9 °C
Humidity: 95% 86% 92%
Wind Speed: 7mph /  11.3km/h - 2.3mph /  3.7km/h
Wind Gust: 14mph /  22.5km/h - -
Wind- - SW
Pressure: 30.03 in /  1016.8 hPa 29.96 in /  1014.4 hPa -
Precipitation: 0.01 in /  0.25 mm    
Historical Graphs
 
 
Tabular Data for July 18, 2021
Time Temperature Dew Point Pressure Wind Wind Speed Wind Gust Humidity Rainfall Rate (Hourly) solar Conditions
00:00 65.7 °F /  18.7 °C 62.6 °F /  17 °C 29.97in /  1014.8hPa SE 1mph /  1.6km/h 7mph /  11.3km/h 90% 0.00in /  0mm 0 W/m2
00:10 65.3 °F /  18.5 °C 62 °F /  16.7 °C 29.96in /  1014.4hPa South 1mph /  1.6km/h 4mph /  6.4km/h 89% 0.00in /  0mm 0 W/m2
00:20 64.9 °F /  18.3 °C 61.9 °F /  16.6 °C 29.96in /  1014.4hPa SSE 1mph /  1.6km/h 3mph /  4.8km/h 90% 0.00in /  0mm 0 W/m2
00:30 64.8 °F /  18.2 °C 61.8 °F /  16.6 °C 29.96in /  1014.4hPa Calm   3mph /  4.8km/h 90% 0.00in /  0mm 0 W/m2
00:40 64.4 °F /  18 °C 61.7 °F /  16.5 °C 29.96in /  1014.4hPa Calm   2mph /  3.2km/h 91% 0.00in /  0mm 0 W/m2
00:50 64.2 °F /  17.9 °C 61.5 °F /  16.4 °C 29.96in /  1014.4hPa WNW 1mph /  1.6km/h 3mph /  4.8km/h 91% 0.00in /  0mm 0 W/m2
01:00 64 °F /  17.8 °C 61.4 °F /  16.3 °C 29.96in /  1014.4hPa WNW 1mph /  1.6km/h 3mph /  4.8km/h 91% 0.00in /  0mm 0 W/m2
01:10 64 °F /  17.8 °C 61.4 °F /  16.3 °C 29.96in /  1014.4hPa West 2mph /  3.2km/h 3mph /  4.8km/h 91% 0.00in /  0mm 0 W/m2
01:20 63.9 °F /  17.7 °C 61.2 °F /  16.2 °C 29.96in /  1014.4hPa SW 1mph /  1.6km/h 3mph /  4.8km/h 91% 0.00in /  0mm 0 W/m2
01:30 63.7 °F /  17.6 °C 61 °F /  16.1 °C 29.96in /  1014.4hPa NW 1mph /  1.6km/h 2mph /  3.2km/h 91% 0.00in /  0mm 0 W/m2
01:40 63.5 °F /  17.5 °C 61.4 °F /  16.3 °C 29.96in /  1014.4hPa Calm   2mph /  3.2km/h 93% 0.00in /  0mm 0 W/m2
01:50 63.3 °F /  17.4 °C 61.3 °F /  16.3 °C 29.96in /  1014.4hPa South 1mph /  1.6km/h 3mph /  4.8km/h 93% 0.00in /  0mm 0 W/m2
02:00 63.3 °F /  17.4 °C 61.3 °F /  16.3 °C 29.97in /  1014.8hPa Calm   3mph /  4.8km/h 93% 0.00in /  0mm 0 W/m2
02:10 63.3 °F /  17.4 °C 61.3 °F /  16.3 °C 29.97in /  1014.8hPa Calm   3mph /  4.8km/h 93% 0.00in /  0mm 0 W/m2
02:20 63.3 °F /  17.4 °C 61.6 °F /  16.4 °C 29.97in /  1014.8hPa NNW 1mph /  1.6km/h 2mph /  3.2km/h 94% 0.00in /  0mm 0 W/m2
02:30 63.1 °F /  17.3 °C 61.1 °F /  16.2 °C 29.97in /  1014.8hPa West 1mph /  1.6km/h 3mph /  4.8km/h 93% 0.00in /  0mm 0 W/m2
02:40 63.1 °F /  17.3 °C 61.4 °F /  16.3 °C 29.97in /  1014.8hPa Calm   3mph /  4.8km/h 94% 0.00in /  0mm 0 W/m2
02:50 63.1 °F /  17.3 °C 61.4 °F /  16.3 °C 29.97in /  1014.8hPa ENE 1mph /  1.6km/h 4mph /  6.4km/h 94% 0.00in /  0mm 0 W/m2
03:00 63.1 °F /  17.3 °C 61.4 °F /  16.3 °C 29.97in /  1014.8hPa ESE 1mph /  1.6km/h 2mph /  3.2km/h 94% 0.00in /  0mm 0 W/m2
03:10 63.3 °F /  17.4 °C 61.6 °F /  16.4 °C 29.97in /  1014.8hPa Calm   2mph /  3.2km/h 94% 0.00in /  0mm 0 W/m2
03:20 63.3 °F /  17.4 °C 61.6 °F /  16.4 °C 29.97in /  1014.8hPa SW 1mph /  1.6km/h 3mph /  4.8km/h 94% 0.00in /  0mm 0 W/m2
03:30 63.1 °F /  17.3 °C 61.4 °F /  16.3 °C 29.97in /  1014.8hPa Calm   3mph /  4.8km/h 94% 0.00in /  0mm 0 W/m2
03:40 63.3 °F /  17.4 °C 61.6 °F /  16.4 °C 29.97in /  1014.8hPa Calm   4mph /  6.4km/h 94% 0.00in /  0mm 0 W/m2
03:50 63.5 °F /  17.5 °C 62 °F /  16.7 °C 29.97in /  1014.8hPa North 2mph /  3.2km/h 4mph /  6.4km/h 95% 0.00in /  0mm 0 W/m2
04:00 63.8 °F /  17.7 °C 62 °F /  16.7 °C 29.97in /  1014.8hPa North 1mph /  1.6km/h 3mph /  4.8km/h 94% 0.00in /  0mm 0 W/m2
04:10 63.9 °F /  17.7 °C 62.1 °F /  16.7 °C 29.97in /  1014.8hPa West 3mph /  4.8km/h 7mph /  11.3km/h 94% 0.00in /  0mm 0 W/m2
04:20 63.9 °F /  17.7 °C 62.1 °F /  16.7 °C 29.98in /  1015.1hPa WSW 5mph /  8km/h 8mph /  12.9km/h 94% 0.00in /  0mm 0 W/m2
04:30 63.7 °F /  17.6 °C 61.6 °F /  16.4 °C 29.97in /  1014.8hPa WSW 1mph /  1.6km/h 8mph /  12.9km/h 93% 0.00in /  0mm 0 W/m2
04:40 63.7 °F /  17.6 °C 61.6 °F /  16.4 °C 29.97in /  1014.8hPa WSW 2mph /  3.2km/h 7mph /  11.3km/h 93% 0.00in /  0mm 0 W/m2
04:50 63.5 °F /  17.5 °C 61.7 °F /  16.5 °C 29.97in /  1014.8hPa WSW 3mph /  4.8km/h 10mph /  16.1km/h 94% 0.01in /  0.25mm 0 W/m2
05:00 63.3 °F /  17.4 °C 61.6 °F /  16.4 °C 29.97in /  1014.8hPa West 2mph /  3.2km/h 8mph /  12.9km/h 94% 0.00in /  0mm 0 W/m2
05:10 63.1 °F /  17.3 °C 61.4 °F /  16.3 °C 29.98in /  1015.1hPa West 2mph /  3.2km/h 5mph /  8km/h 94% 0.00in /  0mm 0 W/m2
05:20 63 °F /  17.2 °C 60.9 °F /  16.1 °C 29.98in /  1015.1hPa West 5mph /  8km/h 9mph /  14.5km/h 93% 0.00in /  0mm 0 W/m2
05:30 62.8 °F /  17.1 °C 59.8 °F /  15.4 °C 29.98in /  1015.1hPa West 7mph /  11.3km/h 13mph /  20.9km/h 90% 0.00in /  0mm 0 W/m2
05:40 62.6 °F /  17 °C 59.6 °F /  15.3 °C 29.98in /  1015.1hPa West 3mph /  4.8km/h 14mph /  22.5km/h 90% 0.00in /  0mm 0 W/m2
05:50 62.4 °F /  16.9 °C 59.4 °F /  15.2 °C 29.99in /  1015.5hPa West 5mph /  8km/h 10mph /  16.1km/h 90% 0.00in /  0mm 0 W/m2
06:00 62.4 °F /  16.9 °C 59.1 °F /  15.1 °C 29.99in /  1015.5hPa WSW 3mph /  4.8km/h 8mph /  12.9km/h 89% 0.00in /  0mm 0 W/m2
06:10 62.3 °F /  16.8 °C 59 °F /  15 °C 30.00in /  1015.8hPa WSW 5mph /  8km/h 7mph /  11.3km/h 89% 0.00in /  0mm 0 W/m2
06:20 62.2 °F /  16.8 °C 59 °F /  15 °C 30.00in /  1015.8hPa West 3mph /  4.8km/h 8mph /  12.9km/h 89% 0.00in /  0mm 1 W/m2
06:30 62.1 °F /  16.7 °C 58.8 °F /  14.9 °C 30.00in /  1015.8hPa West 6mph /  9.7km/h 9mph /  14.5km/h 89% 0.00in /  0mm 3 W/m2
06:40 61.9 °F /  16.6 °C 58.9 °F /  14.9 °C 30.00in /  1015.8hPa WSW 5mph /  8km/h 7mph /  11.3km/h 90% 0.00in /  0mm 6 W/m2
06:50 61.9 °F /  16.6 °C 59.2 °F /  15.1 °C 30.00in /  1015.8hPa SW 3mph /  4.8km/h 8mph /  12.9km/h 91% 0.00in /  0mm 10 W/m2
07:00 61.7 °F /  16.5 °C 59 °F /  15 °C 30.01in /  1016.1hPa WSW 5mph /  8km/h 8mph /  12.9km/h 91% 0.00in /  0mm 17 W/m2
07:10 61.5 °F /  16.4 °C 58.9 °F /  14.9 °C 30.01in /  1016.1hPa SW 5mph /  8km/h 8mph /  12.9km/h 91% 0.00in /  0mm 15 W/m2
07:20 61.5 °F /  16.4 °C 58.9 °F /  14.9 °C 30.01in /  1016.1hPa WSW 6mph /  9.7km/h 8mph /  12.9km/h 91% 0.00in /  0mm 15 W/m2
07:30 61.3 °F /  16.3 °C 58.7 °F /  14.8 °C 30.01in /  1016.1hPa WSW 3mph /  4.8km/h 8mph /  12.9km/h 91% 0.00in /  0mm 35 W/m2
07:40 61.3 °F /  16.3 °C 58.7 °F /  14.8 °C 30.01in /  1016.1hPa WSW 2mph /  3.2km/h 9mph /  14.5km/h 91% 0.00in /  0mm 30 W/m2
07:50 61.2 °F /  16.2 °C 58.2 °F /  14.6 °C 30.02in /  1016.5hPa SW 3mph /  4.8km/h 5mph /  8km/h 90% 0.00in /  0mm 53 W/m2
08:00 61.3 °F /  16.3 °C 58.7 °F /  14.8 °C 30.02in /  1016.5hPa SW 2mph /  3.2km/h 6mph /  9.7km/h 91% 0.00in /  0mm 101 W/m2
08:10 61.5 °F /  16.4 °C 58.2 °F /  14.6 °C 30.02in /  1016.5hPa WSW 3mph /  4.8km/h 8mph /  12.9km/h 89% 0.00in /  0mm 97 W/m2
08:20 61.7 °F /  16.5 °C 58.4 °F /  14.7 °C 30.03in /  1016.8hPa SW 5mph /  8km/h 6mph /  9.7km/h 89% 0.00in /  0mm 72 W/m2
08:30 61.6 °F /  16.4 °C 57.4 °F /  14.1 °C 30.03in /  1016.8hPa SW 7mph /  11.3km/h 13mph /  20.9km/h 86% 0.00in /  0mm 32 W/m2
Knjazevac, Serbia
Compliments of Weather Underground - 2 mb